createdAt,value
2019-04-29T00:01:34.254Z,44.00
2019-04-29T00:04:03.001Z,43.80
2019-04-29T00:06:32.271Z,43.70
2019-04-29T00:09:01.304Z,43.60
2019-04-29T00:11:31.012Z,43.70
2019-04-29T00:13:59.768Z,43.60
2019-04-29T00:16:50.099Z,43.40
2019-04-29T00:19:45.282Z,43.50
2019-04-29T00:22:14.557Z,43.50
2019-04-29T00:24:43.672Z,43.40
2019-04-29T00:27:12.478Z,43.40
2019-04-29T00:29:41.225Z,43.20
2019-04-29T00:32:10.018Z,43.20
2019-04-29T00:34:39.127Z,43.30
2019-04-29T00:37:19.003Z,43.20
2019-04-29T00:40:05.627Z,43.10
2019-04-29T00:43:11.559Z,43.00
2019-04-29T00:45:40.452Z,42.90
2019-04-29T00:48:09.516Z,42.90
2019-04-29T00:50:38.243Z,42.90
2019-04-29T00:53:07.510Z,42.80
2019-04-29T00:55:36.538Z,42.80
2019-04-29T00:58:05.560Z,42.80
2019-04-29T01:00:38.025Z,42.60
2019-04-29T01:03:07.505Z,42.70
2019-04-29T01:05:37.486Z,42.60
2019-04-29T01:08:06.223Z,42.50
2019-04-29T01:10:35.016Z,42.40
2019-04-29T01:13:03.786Z,42.50
2019-04-29T01:15:32.911Z,42.50
2019-04-29T01:18:01.621Z,42.30
2019-04-29T01:20:30.385Z,42.40
2019-04-29T01:22:59.712Z,42.30
2019-04-29T01:25:29.027Z,42.40
2019-04-29T01:28:03.435Z,42.30
2019-04-29T01:31:08.947Z,42.30
2019-04-29T01:33:37.714Z,42.20
2019-04-29T01:36:26.060Z,42.20
2019-04-29T01:39:08.255Z,42.20
2019-04-29T01:41:43.700Z,42.20
2019-04-29T01:44:12.436Z,42.20
2019-04-29T01:46:41.172Z,42.10
2019-04-29T01:49:10.044Z,42.00
2019-04-29T01:51:38.797Z,42.00
2019-04-29T01:54:07.713Z,42.00
2019-04-29T01:56:36.496Z,41.90
2019-04-29T01:59:05.362Z,41.90
2019-04-29T02:01:34.446Z,41.90
2019-04-29T02:04:03.895Z,41.70
2019-04-29T02:06:33.230Z,41.80
2019-04-29T02:09:02.423Z,41.80
2019-04-29T02:11:31.778Z,41.80
2019-04-29T02:14:00.531Z,41.60
2019-04-29T02:16:30.079Z,41.70
2019-04-29T02:18:59.783Z,41.70
2019-04-29T02:21:28.530Z,41.60
2019-04-29T02:24:17.854Z,41.70
2019-04-29T02:26:46.616Z,41.60
2019-04-29T02:29:15.403Z,41.80
2019-04-29T02:31:46.179Z,41.70
2019-04-29T02:34:14.835Z,41.70
2019-04-29T02:36:43.851Z,41.60
2019-04-29T02:39:24.120Z,41.70
2019-04-29T02:42:20.830Z,41.50
2019-04-29T02:44:50.166Z,41.40
2019-04-29T02:47:18.880Z,41.40
2019-04-29T02:49:47.532Z,41.40
2019-04-29T02:52:16.199Z,41.40
2019-04-29T02:54:45.931Z,41.30
2019-04-29T02:57:32.491Z,41.30
2019-04-29T03:00:13.549Z,41.30
2019-04-29T03:02:50.388Z,41.30
2019-04-29T03:05:27.774Z,41.20
2019-04-29T03:07:56.544Z,41.30
2019-04-29T03:10:25.204Z,41.30
2019-04-29T03:12:53.977Z,41.20
2019-04-29T03:15:32.711Z,41.20
2019-04-29T03:18:01.674Z,41.20
2019-04-29T03:20:52.622Z,41.20
2019-04-29T03:23:22.714Z,41.20
2019-04-29T03:25:51.638Z,41.10
2019-04-29T03:28:20.556Z,41.20
2019-04-29T03:30:49.248Z,41.10
2019-04-29T03:33:18.165Z,41.10
2019-04-29T03:35:47.198Z,41.10
2019-04-29T03:38:16.162Z,41.10
2019-04-29T03:40:45.122Z,41.10
2019-04-29T03:43:14.063Z,41.10
2019-04-29T03:45:42.739Z,40.90
2019-04-29T03:48:11.362Z,40.90
2019-04-29T03:50:40.016Z,40.80
2019-04-29T03:53:08.702Z,40.80
2019-04-29T03:55:40.476Z,40.80
2019-04-29T03:58:07.775Z,40.90
2019-04-29T04:00:36.572Z,40.80
2019-04-29T04:03:27.111Z,40.80
2019-04-29T04:06:10.193Z,40.90
2019-04-29T04:08:42.075Z,41.10
2019-04-29T04:11:10.759Z,40.90
2019-04-29T04:13:39.488Z,40.80
2019-04-29T04:16:10.487Z,40.80
2019-04-29T04:18:39.225Z,40.80
2019-04-29T04:21:08.480Z,40.90
2019-04-29T04:23:37.743Z,40.90
2019-04-29T04:26:06.722Z,40.90
2019-04-29T04:28:35.370Z,40.70
2019-04-29T04:31:07.060Z,40.80
2019-04-29T04:33:35.302Z,40.70
2019-04-29T04:36:04.620Z,40.70
2019-04-29T04:38:33.667Z,40.60
2019-04-29T04:41:05.471Z,40.60
2019-04-29T04:43:34.142Z,40.70
2019-04-29T04:46:02.918Z,40.80
2019-04-29T04:48:31.667Z,40.70
2019-04-29T04:51:00.448Z,40.60
2019-04-29T04:53:29.366Z,40.60
2019-04-29T04:56:00.072Z,40.60
2019-04-29T04:58:29.085Z,40.60
2019-04-29T05:00:57.839Z,40.60
2019-04-29T05:03:26.799Z,40.70
2019-04-29T05:05:57.569Z,40.70
2019-04-29T05:08:26.230Z,40.50
2019-04-29T05:10:55.262Z,40.50
2019-04-29T05:13:28.443Z,40.50
2019-04-29T05:15:55.608Z,40.30
2019-04-29T05:18:24.355Z,40.30
2019-04-29T05:20:53.607Z,40.50
2019-04-29T05:23:22.627Z,40.20
2019-04-29T05:25:51.526Z,40.30
2019-04-29T05:28:20.974Z,40.40
2019-04-29T05:30:49.910Z,40.40
2019-04-29T05:33:19.405Z,40.40
2019-04-29T05:36:01.858Z,40.20
2019-04-29T05:38:40.377Z,40.30
2019-04-29T05:41:09.344Z,40.30
2019-04-29T05:43:53.831Z,40.10
2019-04-29T05:46:37.238Z,40.10
2019-04-29T05:49:09.006Z,40.00
2019-04-29T05:51:44.128Z,40.10
2019-04-29T05:54:13.844Z,40.00
2019-04-29T05:56:42.786Z,40.00
2019-04-29T05:59:12.820Z,39.90
2019-04-29T06:01:42.696Z,39.90
2019-04-29T06:04:16.273Z,39.80
2019-04-29T06:06:44.504Z,40.00
2019-04-29T06:09:16.938Z,39.90
2019-04-29T06:11:43.867Z,39.90
2019-04-29T06:14:12.910Z,39.70
2019-04-29T06:16:41.871Z,40.40
2019-04-29T06:19:10.551Z,40.00
2019-04-29T06:21:39.250Z,39.90
2019-04-29T06:24:07.870Z,39.90
2019-04-29T06:26:36.784Z,40.00
2019-04-29T06:29:05.984Z,40.00
2019-04-29T06:31:35.418Z,40.20
2019-04-29T06:34:05.106Z,40.20
2019-04-29T06:36:35.030Z,40.30
2019-04-29T06:39:05.536Z,40.30
2019-04-29T06:41:34.257Z,40.30
2019-04-29T06:44:06.266Z,40.30
2019-04-29T06:46:33.269Z,40.50
2019-04-29T06:49:10.219Z,40.30
2019-04-29T06:51:32.395Z,40.30
2019-04-29T06:54:01.060Z,40.20
2019-04-29T06:56:29.702Z,40.30
2019-04-29T06:58:58.371Z,40.40
2019-04-29T07:01:27.056Z,40.40
2019-04-29T07:03:59.917Z,40.30
2019-04-29T07:06:27.769Z,40.20
2019-04-29T07:08:56.422Z,40.20
2019-04-29T07:11:25.630Z,40.10
2019-04-29T07:13:57.548Z,40.10
2019-04-29T07:16:27.196Z,40.30
2019-04-29T07:18:55.778Z,40.60
2019-04-29T07:21:24.459Z,40.60
2019-04-29T07:23:53.118Z,40.80
2019-04-29T07:26:21.791Z,40.80
2019-04-29T07:28:53.267Z,40.80
2019-04-29T07:31:20.871Z,41.10
2019-04-29T07:33:49.511Z,41.10
2019-04-29T07:36:18.600Z,41.00
2019-04-29T07:38:51.654Z,41.10
2019-04-29T07:41:20.845Z,41.10
2019-04-29T07:43:49.760Z,41.30
2019-04-29T07:46:24.906Z,41.50
2019-04-29T07:49:01.410Z,41.60
2019-04-29T07:51:24.705Z,41.70
2019-04-29T07:53:53.346Z,41.80
2019-04-29T07:56:22.051Z,41.80
2019-04-29T07:58:50.692Z,41.90
2019-04-29T08:01:23.906Z,42.00
2019-04-29T08:03:50.136Z,42.20
2019-04-29T08:06:19.094Z,42.20
2019-04-29T08:08:54.649Z,42.10
2019-04-29T08:11:18.619Z,42.20
2019-04-29T08:13:47.450Z,42.30
2019-04-29T08:16:17.216Z,42.30
2019-04-29T08:18:49.590Z,42.30
2019-04-29T08:21:18.187Z,42.40
2019-04-29T08:23:46.895Z,42.40
2019-04-29T08:26:15.643Z,42.40
2019-04-29T08:28:44.573Z,42.40
2019-04-29T08:31:16.580Z,42.30
2019-04-29T08:33:46.732Z,42.40
2019-04-29T08:36:14.351Z,42.40
2019-04-29T08:38:43.016Z,42.40
2019-04-29T08:41:11.690Z,42.50
2019-04-29T08:44:15.640Z,42.40
2019-04-29T08:46:51.651Z,42.40
2019-04-29T08:49:19.813Z,42.20
2019-04-29T08:51:48.534Z,42.40
2019-04-29T08:54:19.978Z,42.50
2019-04-29T08:57:02.605Z,42.40
2019-04-29T08:59:20.736Z,42.50
2019-04-29T09:01:49.375Z,42.60
2019-04-29T09:04:18.310Z,42.50
2019-04-29T09:06:47.503Z,42.50
2019-04-29T09:09:28.734Z,42.40
2019-04-29T09:11:48.047Z,42.60
2019-04-29T09:14:18.296Z,42.50
2019-04-29T09:16:47.303Z,42.80
2019-04-29T09:19:16.406Z,43.00
2019-04-29T09:21:46.836Z,42.60
2019-04-29T09:24:16.062Z,42.40
2019-04-29T09:26:49.614Z,42.30
2019-04-29T09:29:37.518Z,42.30
2019-04-29T09:32:07.139Z,42.30
2019-04-29T09:34:35.885Z,42.20
2019-04-29T09:37:04.766Z,42.00
2019-04-29T09:39:42.819Z,42.00
2019-04-29T09:42:20.111Z,42.00
2019-04-29T09:45:19.484Z,41.90
2019-04-29T09:47:47.412Z,42.10
2019-04-29T09:50:16.127Z,42.20
2019-04-29T09:52:44.875Z,42.20
2019-04-29T09:55:13.868Z,42.30
2019-04-29T09:57:42.778Z,42.60
2019-04-29T10:00:19.166Z,42.80
2019-04-29T10:03:02.474Z,42.70
2019-04-29T10:05:36.778Z,42.80
2019-04-29T10:08:05.666Z,43.00
2019-04-29T10:10:37.249Z,43.30
2019-04-29T10:13:05.150Z,43.30
2019-04-29T10:15:41.541Z,43.40
2019-04-29T10:18:17.294Z,43.40
2019-04-29T10:20:58.236Z,43.40
2019-04-29T10:23:27.202Z,43.50
2019-04-29T10:25:56.132Z,43.60
2019-04-29T10:28:25.084Z,43.50
2019-04-29T10:30:54.242Z,43.40
2019-04-29T10:33:23.238Z,43.60
2019-04-29T10:35:51.900Z,43.70
2019-04-29T10:38:20.643Z,43.80
2019-04-29T10:41:20.027Z,43.70
2019-04-29T10:44:16.869Z,43.90
2019-04-29T10:47:04.862Z,43.90
2019-04-29T10:49:39.256Z,44.10
2019-04-29T10:52:09.057Z,44.20
2019-04-29T10:54:38.407Z,44.30
2019-04-29T10:57:10.511Z,44.40
2019-04-29T10:59:40.743Z,44.40
2019-04-29T11:02:32.733Z,44.60
2019-04-29T11:05:23.365Z,44.60
2019-04-29T11:07:58.080Z,44.70
2019-04-29T11:10:29.782Z,44.70
2019-04-29T11:12:58.420Z,44.60
2019-04-29T11:15:34.150Z,44.80
2019-04-29T11:18:03.673Z,44.80
2019-04-29T11:20:32.926Z,44.80
2019-04-29T11:23:35.666Z,44.80
2019-04-29T11:26:21.953Z,44.90
2019-04-29T11:28:52.354Z,45.10
2019-04-29T11:31:21.091Z,44.90
2019-04-29T11:34:11.527Z,45.00
2019-04-29T11:36:43.965Z,45.30
2019-04-29T11:39:13.833Z,45.40
2019-04-29T11:41:41.436Z,45.50
2019-04-29T11:44:10.422Z,45.60
2019-04-29T11:46:39.694Z,45.60
2019-04-29T11:49:09.491Z,45.70
2019-04-29T11:52:08.434Z,45.70
2019-04-29T11:54:19.463Z,45.70
2019-04-29T11:56:48.204Z,45.50
2019-04-29T11:59:34.984Z,45.60
2019-04-29T12:02:23.441Z,45.70
2019-04-29T12:04:53.818Z,45.80
2019-04-29T12:07:22.997Z,46.00
2019-04-29T12:09:53.712Z,45.90
2019-04-29T12:12:23.230Z,45.80
2019-04-29T12:15:03.107Z,45.80
2019-04-29T12:17:42.730Z,45.60
2019-04-29T12:20:33.611Z,45.40
2019-04-29T12:23:02.407Z,45.60
2019-04-29T12:25:31.647Z,45.60
2019-04-29T12:28:01.865Z,45.40
2019-04-29T12:30:36.389Z,45.00
2019-04-29T12:33:10.007Z,45.80
2019-04-29T12:35:53.244Z,45.20
2019-04-29T12:38:49.727Z,45.30
2019-04-29T12:41:48.712Z,45.20
2019-04-29T12:44:13.512Z,45.30
2019-04-29T12:46:45.102Z,45.20
2019-04-29T12:49:14.303Z,45.40
2019-04-29T12:51:43.586Z,45.30
2019-04-29T12:54:12.598Z,45.40
2019-04-29T12:56:43.292Z,45.40
2019-04-29T12:59:12.850Z,45.60
2019-04-29T13:02:00.275Z,45.70
2019-04-29T13:04:54.785Z,45.80
2019-04-29T13:07:48.732Z,46.10
2019-04-29T13:10:29.468Z,46.00
2019-04-29T13:12:58.471Z,46.30
2019-04-29T13:15:43.855Z,46.40
2019-04-29T13:18:23.035Z,46.40
2019-04-29T13:20:50.465Z,46.40
2019-04-29T13:23:30.010Z,46.30
2019-04-29T13:25:51.036Z,46.40
2019-04-29T13:28:29.878Z,46.40
2019-04-29T13:30:51.537Z,46.40
2019-04-29T13:33:19.738Z,46.60
2019-04-29T13:35:49.683Z,46.60
2019-04-29T13:38:18.547Z,46.50
2019-04-29T13:40:47.779Z,46.50
2019-04-29T13:43:20.719Z,46.40
2019-04-29T13:46:06.297Z,46.30
2019-04-29T13:48:55.967Z,46.40
2019-04-29T13:51:35.094Z,46.30
2019-04-29T13:53:59.859Z,46.30
2019-04-29T13:56:34.955Z,46.40
2019-04-29T13:58:58.744Z,46.40
2019-04-29T14:02:00.082Z,46.50
2019-04-29T14:04:26.881Z,46.70
2019-04-29T14:06:57.360Z,46.70
2019-04-29T14:09:26.282Z,46.60
2019-04-29T14:12:02.028Z,46.60
2019-04-29T14:14:28.270Z,46.70
2019-04-29T14:17:17.021Z,46.60
2019-04-29T14:19:40.785Z,46.60
2019-04-29T14:21:57.562Z,46.60
2019-04-29T14:24:26.540Z,46.60
2019-04-29T14:26:55.514Z,46.50
2019-04-29T14:29:28.661Z,46.50
2019-04-29T14:31:59.340Z,46.80
2019-04-29T14:34:34.935Z,46.90
2019-04-29T14:37:19.607Z,46.90
2019-04-29T14:39:37.326Z,47.00
2019-04-29T14:42:13.068Z,47.00
2019-04-29T14:44:49.109Z,47.00
2019-04-29T14:47:42.867Z,47.10
2019-04-29T14:50:15.638Z,47.00
2019-04-29T14:52:44.800Z,47.10
2019-04-29T14:55:15.017Z,47.20
2019-04-29T14:57:43.808Z,47.20
2019-04-29T15:00:22.944Z,47.40
2019-04-29T15:02:51.877Z,47.50
2019-04-29T15:05:22.392Z,47.50
2019-04-29T15:07:51.487Z,47.60
2019-04-29T15:10:20.204Z,47.50
2019-04-29T15:13:06.794Z,47.50
2019-04-29T15:15:43.709Z,47.40
2019-04-29T15:18:45.889Z,47.40
2019-04-29T15:21:06.984Z,47.50
2019-04-29T15:23:37.424Z,47.50
2019-04-29T15:26:06.411Z,47.70
2019-04-29T15:28:50.826Z,47.70
2019-04-29T15:31:21.157Z,47.70
2019-04-29T15:33:50.367Z,47.70
2019-04-29T15:36:19.694Z,48.00
2019-04-29T15:39:08.082Z,47.80
2019-04-29T15:41:19.268Z,47.90
2019-04-29T15:43:48.810Z,47.90
2019-04-29T15:46:18.254Z,48.00
2019-04-29T15:48:47.398Z,47.80
2019-04-29T15:51:16.733Z,48.10
2019-04-29T15:53:47.738Z,48.20
2019-04-29T15:56:28.245Z,48.40
2019-04-29T15:58:47.184Z,48.50
2019-04-29T16:01:18.060Z,48.50
2019-04-29T16:03:49.996Z,48.40
2019-04-29T16:06:39.961Z,48.60
2019-04-29T16:09:23.523Z,48.50
2019-04-29T16:11:59.197Z,48.40
2019-04-29T16:14:28.139Z,48.50
2019-04-29T16:16:56.938Z,48.30
2019-04-29T16:19:58.371Z,48.30
2019-04-29T16:22:27.320Z,48.20
2019-04-29T16:27:27.278Z,48.40
2019-04-29T16:29:55.951Z,48.40
2019-04-29T16:32:34.311Z,48.50
2019-04-29T16:35:03.381Z,48.30
2019-04-29T16:37:33.365Z,48.20
2019-04-29T16:40:02.506Z,48.20
2019-04-29T16:42:37.543Z,48.30
2019-04-29T16:45:11.967Z,48.20
2019-04-29T16:47:37.799Z,48.10
2019-04-29T16:50:06.849Z,48.20
2019-04-29T16:52:36.235Z,48.10
2019-04-29T16:55:05.971Z,48.00
2019-04-29T16:57:35.275Z,48.20
2019-04-29T17:00:06.512Z,48.30
2019-04-29T17:02:36.253Z,48.30
2019-04-29T17:05:06.333Z,49.10
2019-04-29T17:07:36.362Z,48.50
2019-04-29T17:10:23.596Z,48.40
2019-04-29T17:12:53.149Z,48.40
2019-04-29T17:15:25.518Z,48.60
2019-04-29T17:17:52.828Z,48.70
2019-04-29T17:20:21.987Z,48.70
2019-04-29T17:22:50.835Z,48.70
2019-04-29T17:25:20.279Z,48.80
2019-04-29T17:28:11.917Z,48.70
2019-04-29T17:31:17.048Z,48.70
2019-04-29T17:33:59.202Z,48.80
2019-04-29T17:35:15.681Z,48.30
2019-04-29T17:36:28.584Z,48.70
2019-04-29T17:38:58.029Z,48.70
2019-04-29T17:41:26.898Z,48.70
2019-04-29T17:44:05.967Z,48.80
2019-04-29T17:46:44.507Z,48.90
2019-04-29T17:49:22.118Z,48.90
2019-04-29T17:51:51.629Z,49.00
2019-04-29T17:54:26.875Z,49.10
2019-04-29T17:57:25.083Z,49.00
2019-04-29T17:59:52.852Z,49.00
2019-04-29T18:02:59.271Z,49.20
2019-04-29T18:05:55.067Z,49.30
2019-04-29T18:08:34.122Z,49.20
2019-04-29T18:11:07.821Z,49.10
2019-04-29T18:13:35.385Z,49.20
2019-04-29T18:16:17.100Z,49.30
2019-04-29T18:18:48.935Z,49.30
2019-04-29T18:21:37.284Z,49.80
2019-04-29T18:24:35.857Z,49.30
2019-04-29T18:27:04.002Z,49.90
2019-04-29T18:29:36.320Z,49.40
2019-04-29T18:32:09.325Z,49.40
2019-04-29T18:35:01.647Z,49.50
2019-04-29T18:37:34.234Z,49.30
2019-04-29T18:40:02.442Z,49.30
2019-04-29T18:42:32.520Z,49.40
2019-04-29T18:45:01.279Z,49.60
2019-04-29T18:47:34.810Z,49.60
2019-04-29T18:50:00.871Z,49.60
2019-04-29T18:52:29.951Z,49.40
2019-04-29T18:54:59.633Z,49.60
2019-04-29T18:57:30.899Z,49.50
2019-04-29T18:59:59.480Z,49.60
2019-04-29T19:02:32.107Z,49.60
2019-04-29T19:05:21.079Z,49.50
2019-04-29T19:07:55.329Z,49.50
2019-04-29T19:10:32.018Z,49.30
2019-04-29T19:12:58.198Z,49.40
2019-04-29T19:15:21.548Z,49.50
2019-04-29T19:17:59.124Z,49.50
2019-04-29T19:20:21.048Z,49.50
2019-04-29T19:22:55.748Z,49.50
2019-04-29T19:25:20.725Z,49.50
2019-04-29T19:27:49.565Z,49.70
2019-04-29T19:30:21.200Z,49.60
2019-04-29T19:32:48.927Z,49.50
2019-04-29T19:35:17.719Z,49.60
2019-04-29T19:37:46.744Z,49.60
2019-04-29T19:40:15.905Z,49.60
2019-04-29T19:42:46.869Z,49.70
2019-04-29T19:45:17.244Z,49.80
2019-04-29T19:47:49.847Z,49.70
2019-04-29T19:50:19.536Z,49.70
2019-04-29T19:52:47.537Z,49.80
2019-04-29T19:55:17.193Z,49.60
2019-04-29T19:57:48.377Z,49.60
2019-04-29T20:00:17.769Z,49.70
2019-04-29T20:02:50.119Z,49.80
2019-04-29T20:05:23.941Z,49.90
2019-04-29T20:07:55.908Z,49.80
2019-04-29T20:10:28.063Z,49.90
2019-04-29T20:12:57.315Z,49.90
2019-04-29T20:15:26.046Z,49.90
2019-04-29T20:18:12.851Z,49.90
2019-04-29T20:20:46.254Z,49.80
2019-04-29T20:23:20.008Z,49.90
2019-04-29T20:25:48.433Z,49.80
2019-04-29T20:28:19.996Z,49.90
2019-04-29T20:30:50.444Z,50.00
2019-04-29T20:33:18.307Z,50.00
2019-04-29T20:35:49.101Z,50.00
2019-04-29T20:38:17.728Z,49.90
2019-04-29T20:40:46.853Z,50.00
2019-04-29T20:43:16.234Z,50.10
2019-04-29T20:45:45.856Z,49.90
2019-04-29T20:48:19.210Z,50.20
2019-04-29T20:50:52.431Z,50.30
2019-04-29T20:53:22.664Z,50.20
2019-04-29T20:55:51.939Z,50.30
2019-04-29T20:58:23.665Z,50.10
2019-04-29T21:00:51.931Z,50.20
2019-04-29T21:03:29.928Z,50.20
2019-04-29T21:05:54.899Z,50.30
2019-04-29T21:08:23.181Z,50.20
2019-04-29T21:10:55.452Z,50.20
2019-04-29T21:13:41.778Z,50.30
2019-04-29T21:16:15.231Z,50.30
2019-04-29T21:18:45.537Z,50.20
2019-04-29T21:21:15.252Z,50.30
2019-04-29T21:23:45.738Z,50.20
2019-04-29T21:26:15.880Z,50.30
2019-04-29T21:28:47.043Z,50.30
2019-04-29T21:31:19.031Z,50.30
2019-04-29T21:33:50.779Z,50.30
2019-04-29T21:36:30.699Z,50.20
2019-04-29T21:39:07.191Z,50.30
2019-04-29T21:41:45.772Z,50.20
2019-04-29T21:44:14.228Z,50.20
2019-04-29T21:46:43.015Z,50.20
2019-04-29T21:49:12.717Z,50.90
2019-04-29T21:51:41.866Z,50.30
2019-04-29T21:54:14.202Z,50.30
2019-04-29T21:56:46.953Z,50.40
2019-04-29T21:59:15.752Z,50.20
2019-04-29T22:01:45.008Z,50.20
2019-04-29T22:04:13.774Z,50.30
2019-04-29T22:06:42.828Z,50.40
2019-04-29T22:09:12.752Z,50.10
2019-04-29T22:11:43.564Z,50.10
2019-04-29T22:14:14.110Z,50.10
2019-04-29T22:16:47.602Z,50.10
2019-04-29T22:19:14.882Z,50.10
2019-04-29T22:21:45.888Z,50.10
2019-04-29T22:24:15.228Z,50.10
2019-04-29T22:26:45.050Z,50.20
2019-04-29T22:29:14.257Z,50.10
2019-04-29T22:31:43.628Z,50.00
2019-04-29T22:34:15.103Z,50.00
2019-04-29T22:36:43.260Z,50.00
2019-04-29T22:39:12.239Z,50.00
2019-04-29T22:42:00.907Z,50.20
2019-04-29T22:44:29.830Z,50.20
2019-04-29T22:46:59.203Z,50.20
2019-04-29T22:49:29.297Z,50.20
2019-04-29T22:51:58.465Z,50.20
2019-04-29T22:54:27.276Z,50.40
2019-04-29T22:56:56.740Z,50.30
2019-04-29T22:59:27.509Z,50.30
2019-04-29T23:01:56.325Z,50.40
2019-04-29T23:04:25.396Z,50.40
2019-04-29T23:06:54.430Z,50.30
2019-04-29T23:09:23.492Z,50.20
2019-04-29T23:11:52.307Z,50.40
2019-04-29T23:14:21.102Z,50.40
2019-04-29T23:16:50.292Z,50.30
2019-04-29T23:19:19.708Z,50.30
2019-04-29T23:22:15.432Z,50.20
2019-04-29T23:25:06.223Z,50.20
2019-04-29T23:27:36.052Z,50.30
2019-04-29T23:30:05.996Z,50.40
2019-04-29T23:32:35.279Z,50.50
2019-04-29T23:35:08.274Z,50.40
2019-04-29T23:37:35.904Z,50.30
2019-04-29T23:40:05.885Z,50.30
2019-04-29T23:42:35.106Z,50.40
2019-04-29T23:45:05.282Z,50.30
2019-04-29T23:47:35.755Z,50.30
2019-04-29T23:50:05.801Z,50.40
2019-04-29T23:52:35.930Z,50.30
2019-04-29T23:55:07.598Z,50.30
2019-04-29T23:57:55.587Z,50.20
